Terminal Aerodrome Forecast
Issued by NWS

Home | Current Version | Previous Version | Text Only | Print | Product List | Glossary On
Versions: 1 2 3 4 5 6 7 8 9 10 11 12 13 14 15 16 17 18 19 20 21 22 23 24
000
FTUS46 KPDT 111140
TAFALW
TAF
KALW 111140Z 1112/1212 19006KT P6SM VCSH SCT025 OVC090
     FM111700 20008KT 3SM -RASN SCT015 OVC022
     FM112200 20011G17KT P6SM -SHRA SCT025 OVC070
     FM120300 19009KT P6SM VCSH BKN035 OVC060
     FM120800 19007KT P6SM BKN060 OVC090=

USA.gov is the U.S. government's official web portal to all federal, state and local government web resources and services.